Time;durP1;ratioP1;P1;durP2;ratioP2;P2;SDS_P1;SDS_P2;PMS_P1;PMS_P2;Temp;Humidity;BMP_temperature;BMP_pressure;BME280_temperature;BME280_humidity;BME280_pressure;Samples;Min_cycle;Max_cycle;Signal;HPM_P1;HPM_P2
2023/06/16 00:00:00;;;;;;;4.22;3.05;;;;;;;21.04;67.38;100672.56;4956327;28;20043;-80
2023/06/16 00:02:43;;;;;;;4.55;3.22;;;;;;;21.20;69.34;100670.69;4956133;28;20050;-80
2023/06/16 00:05:12;;;;;;;4.78;3.53;;;;;;;20.71;73.55;100670.72;4973315;28;20421;-80
2023/06/16 00:07:41;;;;;;;4.60;3.30;;;;;;;20.79;75.05;100678.94;4973432;28;20050;-80
2023/06/16 00:10:10;;;;;;;6.15;3.50;;;;;;;20.50;75.63;100672.44;4972502;28;20443;-80
2023/06/16 00:12:40;;;;;;;4.65;3.00;;;;;;;20.40;77.03;100657.00;4973056;28;20074;-78
2023/06/16 00:15:09;;;;;;;4.10;2.80;;;;;;;20.08;76.93;100650.38;4972975;28;20046;-80
2023/06/16 00:17:44;;;;;;;2.40;2.25;;;;;;;20.17;73.63;100655.81;4972882;28;20050;-80
2023/06/16 00:20:14;;;;;;;3.35;2.60;;;;;;;20.00;72.66;100674.31;4973200;28;20061;-79
2023/06/16 00:22:47;;;;;;;3.38;2.45;;;;;;;20.05;74.09;100676.88;4973138;28;20047;-80
2023/06/16 00:25:19;;;;;;;4.32;2.38;;;;;;;20.20;74.11;100680.97;4973033;28;20058;-80
2023/06/16 00:27:47;;;;;;;2.38;1.88;;;;;;;20.08;74.03;100684.50;4973187;28;20054;-80
2023/06/16 00:30:15;;;;;;;2.50;2.00;;;;;;;19.82;73.90;100674.44;4973217;28;20047;-80
2023/06/16 00:32:45;;;;;;;3.75;2.30;;;;;;;19.74;74.60;100672.53;4973043;28;20043;-79
2023/06/16 00:35:13;;;;;;;2.17;1.90;;;;;;;19.86;73.11;100666.22;4972780;28;20047;-80
2023/06/16 00:37:42;;;;;;;2.35;1.90;;;;;;;19.98;70.54;100662.69;4973153;28;20043;-80
2023/06/16 00:40:11;;;;;;;2.28;1.73;;;;;;;19.97;68.73;100666.63;4973249;28;20047;-80
2023/06/16 00:42:39;;;;;;;2.60;1.92;;;;;;;20.08;69.43;100676.16;4972975;28;20497;-80
2023/06/16 00:45:07;;;;;;;2.17;1.77;;;;;;;20.04;68.24;100669.66;4955437;28;20051;-80
2023/06/16 00:47:35;;;;;;;2.40;2.20;;;;;;;20.16;68.60;100679.19;4973014;28;20043;-80
2023/06/16 00:50:04;;;;;;;3.08;2.10;;;;;;;20.13;69.02;100683.47;4972995;28;20051;-80
2023/06/16 00:52:35;;;;;;;2.08;1.90;;;;;;;20.26;68.33;100681.53;4954914;28;20051;-80
2023/06/16 00:55:03;;;;;;;2.15;1.95;;;;;;;20.27;67.88;100685.94;4972995;28;20054;-80
2023/06/16 00:57:31;;;;;;;2.17;1.98;;;;;;;20.17;68.40;100686.38;4955394;28;20487;-80
2023/06/16 00:59:59;;;;;;;2.63;2.03;;;;;;;20.13;67.69;100692.63;4940003;28;20047;-80
2023/06/16 01:02:29;;;;;;;1.90;1.77;;;;;;;20.19;67.08;100695.19;4973057;28;20062;-79
2023/06/16 01:04:57;;;;;;;1.55;1.45;;;;;;;20.02;68.05;100685.88;4972510;28;20055;-80
2023/06/16 01:07:39;;;;;;;2.03;1.85;;;;;;;20.09;68.34;100693.66;4958029;28;20054;-80
2023/06/16 01:10:14;;;;;;;2.58;1.88;;;;;;;20.20;66.95;100685.69;4974760;28;20055;-80
2023/06/16 01:13:17;;;;;;;2.13;1.95;;;;;;;20.20;67.87;100680.97;4972841;28;20059;-80
2023/06/16 01:15:46;;;;;;;3.05;2.05;;;;;;;20.14;67.53;100680.34;4965023;28;20131;-80
2023/06/16 01:18:23;;;;;;;2.20;1.90;;;;;;;20.12;66.53;100674.34;4955423;28;20054;-80
2023/06/16 01:21:00;;;;;;;2.47;2.28;;;;;;;20.03;67.25;100670.03;4973667;28;20496;-80
2023/06/16 01:23:52;;;;;;;2.13;1.95;;;;;;;20.34;65.57;100674.25;4976376;28;20047;-80
2023/06/16 01:26:23;;;;;;;2.10;1.90;;;;;;;20.21;65.77;100670.63;4959414;28;20050;-80
2023/06/16 01:28:52;;;;;;;2.15;1.80;;;;;;;20.31;64.26;100672.16;4962135;28;20050;-80
2023/06/16 01:31:23;;;;;;;2.30;2.10;;;;;;;20.18;65.15;100663.00;4977171;28;20046;-80
2023/06/16 01:33:52;;;;;;;1.70;1.60;;;;;;;20.31;63.60;100659.09;4959283;28;20524;-80
2023/06/16 01:36:24;;;;;;;2.10;1.92;;;;;;;20.36;61.91;100667.22;4959596;28;20482;-80
2023/06/16 01:38:53;;;;;;;2.15;1.95;;;;;;;20.46;61.53;100665.94;4959894;28;20043;-80
2023/06/16 01:41:22;;;;;;;2.20;2.00;;;;;;;20.58;62.18;100667.91;4977189;28;20043;-80
2023/06/16 01:43:50;;;;;;;1.58;1.48;;;;;;;20.56;61.76;100656.34;4958583;28;20055;-80
2023/06/16 01:46:20;;;;;;;2.53;2.00;;;;;;;20.67;63.16;100660.28;4975521;28;20055;-80
2023/06/16 01:48:49;;;;;;;2.72;2.10;;;;;;;20.56;63.58;100659.13;4958908;28;20054;-80
2023/06/16 01:51:17;;;;;;;3.00;2.50;;;;;;;20.57;63.58;100660.72;4975691;28;20043;-80
2023/06/16 01:53:46;;;;;;;6.20;2.05;;;;;;;20.49;64.86;100658.88;4958327;28;20508;-80
2023/06/16 01:56:15;;;;;;;2.42;1.80;;;;;;;20.37;65.55;100654.94;4975231;28;20053;-80
2023/06/16 01:58:44;;;;;;;2.97;2.10;;;;;;;20.11;65.49;100655.22;4942707;28;20058;-80
2023/06/16 02:01:39;;;;;;;2.58;2.15;;;;;;;20.11;66.98;100656.06;4975719;28;20057;-80
2023/06/16 02:04:16;;;;;;;2.33;1.88;;;;;;;20.04;66.84;100643.88;4957297;28;20054;-80
2023/06/16 02:06:58;;;;;;;2.42;2.22;;;;;;;20.03;66.17;100653.38;4975547;28;20478;-80
2023/06/16 02:09:28;;;;;;;3.85;2.08;;;;;;;20.06;66.09;100641.56;4958305;28;20058;-80
2023/06/16 02:11:57;;;;;;;2.40;2.17;;;;;;;20.13;65.98;100650.94;4958222;28;20054;-80
2023/06/16 02:14:27;;;;;;;2.30;2.08;;;;;;;20.09;66.29;100654.78;4957758;28;20035;-80
2023/06/16 02:16:57;;;;;;;2.70;2.47;;;;;;;20.11;66.27;100656.06;4975234;28;20058;-80
2023/06/16 02:19:28;;;;;;;3.33;2.63;;;;;;;20.16;65.44;100652.22;4958081;28;20401;-80
2023/06/16 02:21:57;;;;;;;4.90;2.53;;;;;;;20.33;65.49;100653.19;4975232;28;20054;-80
2023/06/16 02:24:27;;;;;;;3.08;2.83;;;;;;;20.36;66.06;100653.31;4957522;28;20401;-80
2023/06/16 02:26:55;;;;;;;2.30;2.10;;;;;;;20.16;66.12;100656.97;4957556;28;20058;-80
2023/06/16 02:29:23;;;;;;;2.63;2.42;;;;;;;20.05;67.59;100662.16;4974842;28;20058;-80
2023/06/16 02:31:51;;;;;;;3.53;2.78;;;;;;;20.07;68.21;100659.84;4974531;28;20054;-80
2023/06/16 02:34:19;;;;;;;2.40;2.20;;;;;;;20.02;67.94;100652.53;4974184;28;20410;-80
2023/06/16 02:36:50;;;;;;;3.42;2.30;;;;;;;19.78;68.38;100648.50;4974474;28;20043;-80
2023/06/16 02:39:18;;;;;;;2.28;2.08;;;;;;;19.64;69.45;100648.00;4957341;28;20046;-80
2023/06/16 02:41:48;;;;;;;2.40;2.20;;;;;;;19.66;70.66;100651.22;4974625;28;20043;-80
2023/06/16 02:44:18;;;;;;;3.30;2.53;;;;;;;19.64;70.60;100661.88;4957063;28;20046;-80
2023/06/16 02:46:46;;;;;;;2.42;2.22;;;;;;;19.47;70.79;100645.00;4974433;28;20482;-80
2023/06/16 02:49:16;;;;;;;3.05;2.05;;;;;;;19.43;71.47;100649.63;4940496;28;20062;-80
2023/06/16 02:51:45;;;;;;;2.53;2.33;;;;;;;19.37;71.89;100650.97;4956903;28;20051;-80
2023/06/16 02:54:13;;;;;;;2.45;2.25;;;;;;;19.36;71.90;100651.31;4956913;28;20034;-80
2023/06/16 02:56:41;;;;;;;2.40;2.20;;;;;;;19.40;71.61;100650.28;4974201;28;20050;-80
2023/06/16 02:59:10;;;;;;;2.55;2.35;;;;;;;19.48;72.11;100648.59;4956960;28;20030;-80
2023/06/16 03:01:39;;;;;;;3.40;2.10;;;;;;;19.35;72.41;100653.25;4957133;28;20058;-80
2023/06/16 03:04:30;;;;;;;3.30;2.50;;;;;;;19.28;71.35;100650.22;4974025;28;20402;-80
2023/06/16 03:07:07;;;;;;;3.05;2.75;;;;;;;19.31;72.54;100653.13;4956716;28;20046;-80
2023/06/16 03:09:41;;;;;;;4.38;2.40;;;;;;;19.26;74.11;100653.34;4956986;28;20043;-79
2023/06/16 03:12:11;;;;;;;2.70;2.22;;;;;;;19.26;73.79;100638.66;4941094;28;20058;-79
2023/06/16 03:14:50;;;;;;;3.28;2.50;;;;;;;19.24;73.69;100650.09;4956647;28;20490;-80
2023/06/16 03:17:20;;;;;;;3.05;2.45;;;;;;;19.15;74.23;100644.59;4956324;28;20073;-80
2023/06/16 03:19:49;;;;;;;5.40;2.83;;;;;;;19.09;74.63;100650.69;4974210;28;20402;-80
2023/06/16 03:22:25;;;;;;;2.65;2.45;;;;;;;18.98;75.00;100645.53;4957022;28;20485;-80
2023/06/16 03:24:53;;;;;;;2.75;2.55;;;;;;;18.93;76.11;100654.03;4956657;28;20051;-80
2023/06/16 03:27:21;;;;;;;4.60;2.33;;;;;;;18.84;74.50;100656.84;4956509;28;20054;-80
2023/06/16 03:29:55;;;;;;;2.45;2.25;;;;;;;18.88;74.89;100657.00;4955568;28;20046;-80
2023/06/16 03:32:23;;;;;;;3.10;2.42;;;;;;;19.00;74.21;100665.41;4956656;28;20047;-80
2023/06/16 03:34:53;;;;;;;3.13;2.40;;;;;;;19.06;74.75;100654.94;4956395;28;20043;-80
2023/06/16 03:37:21;;;;;;;3.47;2.58;;;;;;;19.11;73.73;100651.19;4956123;28;20058;-80
2023/06/16 03:39:49;;;;;;;3.05;2.75;;;;;;;19.18;74.17;100663.38;4956421;28;20050;-80
2023/06/16 03:42:18;;;;;;;2.53;2.33;;;;;;;19.02;74.71;100665.06;4956421;28;20054;-80
2023/06/16 03:44:46;;;;;;;2.97;2.70;;;;;;;19.11;74.92;100676.13;4955870;28;20042;-80
2023/06/16 03:47:14;;;;;;;3.00;2.80;;;;;;;18.96;75.61;100675.53;4973365;28;20081;-80
2023/06/16 03:49:43;;;;;;;4.07;3.00;;;;;;;18.91;76.47;100667.41;4956385;28;20398;-80
2023/06/16 03:52:11;;;;;;;5.38;3.17;;;;;;;18.88;77.25;100680.00;4955131;28;20057;-80
2023/06/16 03:54:39;;;;;;;3.45;3.25;;;;;;;18.81;78.49;100665.81;4973415;28;20042;-80
2023/06/16 03:57:08;;;;;;;5.28;3.38;;;;;;;18.79;78.52;100671.72;4973274;28;20051;-80
2023/06/16 03:59:38;;;;;;;3.70;2.85;;;;;;;18.83;78.36;100671.03;4956299;28;20043;-80
2023/06/16 04:02:07;;;;;;;4.85;3.13;;;;;;;18.83;79.80;100669.09;4940400;28;20055;-80
2023/06/16 04:04:42;;;;;;;3.70;3.40;;;;;;;18.93;78.13;100665.13;4956039;28;20057;-80
2023/06/16 04:07:12;;;;;;;3.40;3.10;;;;;;;19.09;77.88;100661.78;4955969;28;20042;-80
2023/06/16 04:09:42;;;;;;;3.38;3.08;;;;;;;19.12;77.22;100664.72;4956290;28;20042;-80
2023/06/16 04:12:11;;;;;;;4.47;2.90;;;;;;;19.21;77.24;100664.63;4955946;28;20058;-80
2023/06/16 04:14:39;;;;;;;3.95;3.15;;;;;;;19.17;76.44;100660.91;4973397;28;20053;-79
2023/06/16 04:17:08;;;;;;;4.63;3.60;;;;;;;19.19;75.91;100670.53;4972287;28;20039;-80
2023/06/16 04:19:38;;;;;;;3.90;3.22;;;;;;;19.18;76.32;100668.09;4955850;28;20047;-80
2023/06/16 04:22:06;;;;;;;3.63;3.00;;;;;;;19.14;76.45;100661.56;4973017;28;20047;-80
2023/06/16 04:24:48;;;;;;;3.42;3.05;;;;;;;19.19;78.48;100667.75;4973040;28;20051;-80
2023/06/16 04:27:17;;;;;;;4.03;3.40;;;;;;;19.21;77.54;100664.63;4955622;28;20051;-80
2023/06/16 04:29:46;;;;;;;3.42;3.13;;;;;;;19.21;77.75;100672.94;4955440;28;20045;-80
2023/06/16 04:32:15;;;;;;;6.38;3.08;;;;;;;19.18;78.06;100654.22;4944552;29;20063;-85
2023/06/16 04:34:46;;;;;;;4.25;3.33;;;;;;;19.83;76.16;100669.69;4971553;28;20257;-84
2023/06/16 04:37:16;;;;;;;5.10;3.08;;;;;;;20.01;73.80;100668.38;4955225;28;20046;-83
2023/06/16 04:39:44;;;;;;;3.33;2.78;;;;;;;20.32;72.31;100679.38;4955659;28;20043;-83
2023/06/16 04:42:18;;;;;;;4.55;2.92;;;;;;;20.29;71.09;100669.75;4955687;28;20042;-83
2023/06/16 04:44:47;;;;;;;4.32;2.85;;;;;;;20.54;71.00;100669.78;4954441;28;20050;-83
2023/06/16 04:47:17;;;;;;;4.03;2.88;;;;;;;20.66;70.39;100664.22;4954625;28;20489;-84
2023/06/16 04:49:46;;;;;;;3.15;2.75;;;;;;;20.87;69.55;100668.88;4955500;28;20054;-84
2023/06/16 04:52:14;;;;;;;3.13;2.83;;;;;;;20.90;69.90;100662.63;4972653;28;20047;-84
2023/06/16 04:54:42;;;;;;;3.38;3.08;;;;;;;20.70;70.10;100657.94;4972665;28;20047;-83
2023/06/16 04:57:11;;;;;;;4.70;2.75;;;;;;;20.75;70.56;100660.50;4958188;28;20529;-84
2023/06/16 04:59:39;;;;;;;3.55;3.03;;;;;;;20.68;70.60;100659.13;4959345;28;20050;-84
2023/06/16 05:02:07;;;;;;;3.03;2.70;;;;;;;20.91;70.00;100663.41;4976489;28;20054;-85
2023/06/16 05:04:37;;;;;;;4.72;2.90;;;;;;;21.26;68.17;100662.13;4976658;28;20043;-85
2023/06/16 05:07:05;;;;;;;3.42;2.80;;;;;;;21.23;68.31;100657.22;4959087;28;20520;-86
2023/06/16 05:09:33;;;;;;;4.15;2.78;;;;;;;21.40;67.81;100647.81;4959378;28;20054;-83
2023/06/16 05:12:01;;;;;;;3.83;2.90;;;;;;;21.55;67.21;100655.41;4958875;28;20043;-85
2023/06/16 05:14:29;;;;;;;4.50;3.33;;;;;;;21.47;67.38;100650.81;4958784;28;20713;-84
2023/06/16 05:16:57;;;;;;;3.28;2.97;;;;;;;21.45;67.44;100655.88;4942278;28;20065;-84
2023/06/16 05:19:26;;;;;;;3.50;3.20;;;;;;;21.46;67.24;100649.19;4976638;28;20051;-84
2023/06/16 05:21:59;;;;;;;4.47;2.85;;;;;;;21.57;66.81;100649.47;4959102;28;20047;-84
2023/06/16 05:24:30;;;;;;;2.80;2.60;;;;;;;21.54;66.63;100644.59;4959052;28;20047;-84
2023/06/16 05:26:59;;;;;;;5.00;2.90;;;;;;;21.80;65.75;100649.75;4958554;28;20382;-84
2023/06/16 05:29:28;;;;;;;3.10;2.80;;;;;;;21.71;65.70;100644.34;4958687;28;20054;-85
2023/06/16 05:31:58;;;;;;;3.05;2.75;;;;;;;21.84;65.65;100642.31;4958609;28;20058;-83
2023/06/16 05:34:26;;;;;;;3.55;3.25;;;;;;;21.75;65.09;100642.47;4958567;28;20413;-83
2023/06/16 05:36:55;;;;;;;4.53;3.03;;;;;;;21.99;64.39;100657.44;4958361;28;20129;-83
2023/06/16 05:39:26;;;;;;;3.47;3.17;;;;;;;22.04;63.81;100645.22;4958223;28;20034;-82
2023/06/16 05:41:54;;;;;;;3.28;2.97;;;;;;;22.05;63.88;100654.41;4942949;28;20402;-83
2023/06/16 05:44:22;;;;;;;3.05;2.80;;;;;;;21.98;63.55;100653.03;4975668;28;20054;-83
2023/06/16 05:46:50;;;;;;;3.45;3.13;;;;;;;22.11;64.52;100651.00;4937860;29;20042;-83
2023/06/16 05:49:20;;;;;;;4.25;3.35;;;;;;;22.32;62.76;100649.09;4955127;28;20054;-83
2023/06/16 05:51:48;;;;;;;3.50;3.20;;;;;;;22.40;63.28;100660.06;4938970;29;20047;-83
2023/06/16 05:54:16;;;;;;;3.50;3.13;;;;;;;22.51;62.16;100659.53;4939062;29;20051;-83
2023/06/16 05:56:44;;;;;;;4.05;3.10;;;;;;;22.39;61.18;100663.25;4967038;28;20053;-83
2023/06/16 05:59:12;;;;;;;4.13;2.85;;;;;;;22.42;58.48;100670.88;4975400;28;20047;-83
2023/06/16 06:01:40;;;;;;;3.92;2.97;;;;;;;22.60;58.56;100678.91;4956080;28;20051;-83
2023/06/16 06:04:11;;;;;;;3.03;2.72;;;;;;;22.67;58.09;100679.91;4957563;28;20047;-83
2023/06/16 06:06:39;;;;;;;4.82;3.00;;;;;;;22.63;57.13;100675.41;4955851;28;20076;-83
2023/06/16 06:09:07;;;;;;;3.53;2.83;;;;;;;22.80;57.80;100689.00;4954409;28;20417;-84
2023/06/16 06:11:36;;;;;;;3.60;2.97;;;;;;;22.84;57.50;100680.72;4956962;28;20413;-85
2023/06/16 06:14:04;;;;;;;3.20;2.90;;;;;;;22.92;58.50;100682.50;4956654;28;20050;-85
2023/06/16 06:16:32;;;;;;;5.05;2.92;;;;;;;23.07;59.30;100686.41;4974091;28;20039;-82
2023/06/16 06:19:00;;;;;;;4.57;3.47;;;;;;;23.09;59.15;100686.88;4974218;28;20513;-82
2023/06/16 06:21:28;;;;;;;3.22;2.90;;;;;;;23.22;58.60;100690.34;4974126;28;20077;-82
2023/06/16 06:23:57;;;;;;;3.40;3.10;;;;;;;23.31;57.93;100695.75;4955666;28;20046;-84
2023/06/16 06:26:25;;;;;;;4.85;3.10;;;;;;;23.41;57.79;100690.78;4955524;28;20375;-82
2023/06/16 06:47:25;;;;;;;3.15;2.80;;;;;;;24.32;54.44;100715.75;5290669;23;20058;-82
2023/06/16 06:50:07;;;;;;;3.17;2.70;;;;;;;24.26;55.47;100712.47;4922691;29;20048;-86
2023/06/16 06:52:42;;;;;;;4.50;2.63;;;;;;;24.27;54.66;100713.25;4954441;29;20389;-85
2023/06/16 06:55:10;;;;;;;5.22;2.63;;;;;;;24.41;54.73;100726.69;4937133;29;20051;-85
2023/06/16 06:57:42;;;;;;;3.65;2.80;;;;;;;24.44;54.39;100723.16;4954501;29;20055;-85
2023/06/16 07:00:12;;;;;;;5.07;2.80;;;;;;;24.58;53.32;100733.78;4937543;29;20513;-85
2023/06/16 07:02:41;;;;;;;5.35;2.85;;;;;;;24.55;53.88;100728.94;4954407;29;20128;-85
2023/06/16 07:05:09;;;;;;;3.20;2.45;;;;;;;24.68;53.05;100733.16;4937301;29;20059;-84
2023/06/16 07:07:37;;;;;;;3.78;2.58;;;;;;;24.80;52.35;100736.94;4954450;29;20394;-85
2023/06/16 07:10:06;;;;;;;3.00;2.75;;;;;;;24.74;50.46;100736.47;4955760;29;20050;-85
2023/06/16 07:12:33;;;;;;;3.83;2.97;;;;;;;24.87;51.82;100737.09;4939917;29;20047;-86
2023/06/16 07:15:01;;;;;;;2.85;2.60;;;;;;;24.87;48.50;100744.69;4954423;29;20054;-85
2023/06/16 07:17:31;;;;;;;3.58;2.80;;;;;;;24.98;49.87;100734.47;4954028;29;20055;-85
2023/06/16 07:19:59;;;;;;;2.90;2.60;;;;;;;25.02;50.18;100738.13;4953834;28;20055;-85
2023/06/16 07:22:28;;;;;;;2.97;2.70;;;;;;;25.14;49.91;100742.72;4954322;29;20043;-85
2023/06/16 07:24:56;;;;;;;3.97;2.70;;;;;;;25.25;49.11;100750.44;4954255;29;20043;-86
2023/06/16 07:27:23;;;;;;;3.03;2.63;;;;;;;25.29;49.54;100742.91;4936718;29;20058;-85
2023/06/16 07:29:51;;;;;;;5.38;3.28;;;;;;;25.33;47.45;100740.97;4954129;29;20051;-85
2023/06/16 07:32:19;;;;;;;4.07;3.03;;;;;;;25.11;49.56;100731.47;4954498;29;20055;-85
2023/06/16 07:34:47;;;;;;;3.67;2.83;;;;;;;25.20;49.24;100738.41;4954391;29;20050;-90
2023/06/16 07:37:15;;;;;;;4.60;2.30;;;;;;;25.26;48.91;100738.88;4954555;29;20054;-89
2023/06/16 07:39:42;;;;;;;3.30;3.00;;;;;;;25.15;49.63;100738.72;4956078;29;20074;-83
2023/06/16 07:42:10;;;;;;;3.40;3.10;;;;;;;25.39;49.01;100738.66;4956517;29;20050;-84
2023/06/16 07:44:38;;;;;;;3.20;2.90;;;;;;;25.40;48.57;100737.47;4954009;29;20398;-83
2023/06/16 07:47:06;;;;;;;5.63;3.20;;;;;;;25.43;47.65;100731.94;4953848;29;20050;-83
2023/06/16 07:49:37;;;;;;;3.35;2.63;;;;;;;25.48;47.79;100734.38;4953943;29;20043;-84
2023/06/16 07:52:06;;;;;;;3.42;3.00;;;;;;;25.37;47.04;100733.44;4937185;29;20054;-83
2023/06/16 07:54:34;;;;;;;4.00;2.50;;;;;;;25.46;47.60;100736.75;4953803;29;20036;-84
2023/06/16 07:57:02;;;;;;;3.13;2.83;;;;;;;25.56;46.44;100740.13;4953765;29;20047;-83
2023/06/16 07:59:30;;;;;;;3.28;2.67;;;;;;;25.67;47.75;100729.88;4953771;29;20376;-83
2023/06/16 08:01:58;;;;;;;4.22;2.75;;;;;;;25.71;47.01;100727.13;4953823;29;20066;-83
2023/06/16 08:04:29;;;;;;;3.58;3.28;;;;;;;25.62;47.32;100727.41;4936683;29;20383;-84
2023/06/16 08:06:57;;;;;;;3.90;2.90;;;;;;;25.69;46.85;100721.06;4954003;29;20053;-83
2023/06/16 08:09:25;;;;;;;2.88;2.67;;;;;;;25.70;47.47;100717.88;4956150;29;20058;-83
2023/06/16 08:11:53;;;;;;;4.68;3.17;;;;;;;25.74;47.05;100709.53;4954787;29;20039;-84
2023/06/16 08:14:22;;;;;;;4.40;2.90;;;;;;;25.84;45.63;100722.88;4953671;29;20062;-84
2023/06/16 08:16:50;;;;;;;5.50;2.90;;;;;;;25.75;46.18;100713.94;4954200;29;20054;-84
2023/06/16 08:19:18;;;;;;;3.92;3.42;;;;;;;25.81;46.84;100720.81;4956322;29;20047;-83
2023/06/16 08:21:46;;;;;;;3.30;2.92;;;;;;;25.97;47.27;100706.59;4954434;29;20054;-84
2023/06/16 08:24:13;;;;;;;3.03;2.72;;;;;;;25.94;46.91;100703.75;4953681;29;20124;-83
2023/06/16 08:26:44;;;;;;;3.13;2.88;;;;;;;25.92;45.05;100694.91;4953800;29;20043;-84
2023/06/16 08:29:14;;;;;;;3.58;2.80;;;;;;;25.84;46.95;100699.63;4950905;29;20062;-84
2023/06/16 08:31:42;;;;;;;4.43;3.33;;;;;;;25.97;46.73;100694.56;4938677;29;20059;-83
2023/06/16 08:34:10;;;;;;;3.55;2.80;;;;;;;26.07;46.06;100695.88;4956697;29;20789;-83
2023/06/16 08:36:38;;;;;;;3.30;3.00;;;;;;;26.10;46.07;100700.72;4957253;29;20042;-83
2023/06/16 08:39:07;;;;;;;4.15;3.30;;;;;;;26.18;45.78;100702.41;4957286;29;20054;-83
2023/06/16 08:41:36;;;;;;;4.38;3.28;;;;;;;26.16;45.75;100682.34;4939992;29;20524;-83
2023/06/16 08:44:10;;;;;;;3.60;3.17;;;;;;;26.15;45.18;100684.34;4947250;29;20058;-84
2023/06/16 08:46:38;;;;;;;5.82;3.42;;;;;;;26.18;44.49;100691.19;4938560;29;20482;-84
2023/06/16 08:49:07;;;;;;;3.40;3.10;;;;;;;26.24;45.09;100698.09;4953661;28;20055;-81
2023/06/16 08:51:37;;;;;;;3.13;2.83;;;;;;;26.35;43.65;100700.19;4924257;29;20054;-83
2023/06/16 08:54:10;;;;;;;2.78;2.33;;;;;;;26.43;44.53;100694.25;4963100;28;20043;-83
2023/06/16 08:56:39;;;;;;;3.22;2.90;;;;;;;26.36;44.06;100693.38;4958590;28;20055;-84
2023/06/16 08:59:08;;;;;;;4.53;2.85;;;;;;;26.50;44.16;100701.13;4959095;28;20047;-84
2023/06/16 09:01:39;;;;;;;3.42;3.13;;;;;;;26.50;44.82;100701.13;4958232;28;20062;-84
2023/06/16 09:04:13;;;;;;;3.13;2.40;;;;;;;26.45;43.56;100693.06;4959102;28;20074;-83
2023/06/16 09:06:56;;;;;;;4.95;3.10;;;;;;;26.54;45.17;100690.75;4976235;28;20051;-85
2023/06/16 09:09:24;;;;;;;2.80;2.60;;;;;;;26.53;44.18;100683.50;4976523;28;20054;-83
2023/06/16 09:12:07;;;;;;;3.13;2.78;;;;;;;26.74;44.88;100688.50;4959203;28;20054;-85
2023/06/16 09:14:48;;;;;;;3.53;2.27;;;;;;;26.73;45.13;100686.09;4958611;28;20528;-84
2023/06/16 09:17:27;;;;;;;2.92;2.60;;;;;;;26.76;44.53;100685.28;4971388;28;20058;-86
2023/06/16 09:19:56;;;;;;;3.47;2.58;;;;;;;26.79;44.16;100688.13;4956887;28;20043;-84
2023/06/16 09:31:03;;;;;;;3.63;2.78;;;;;;;26.99;43.51;100673.03;5186852;23;20062;-86
2023/06/16 09:33:40;;;;;;;3.30;3.00;;;;;;;27.02;44.78;100675.88;4959529;28;20489;-85
2023/06/16 09:36:09;;;;;;;3.28;2.97;;;;;;;26.83;44.27;100669.31;4976568;28;20061;-85
2023/06/16 09:38:38;;;;;;;3.88;2.45;;;;;;;26.93;44.06;100681.03;4976339;28;20050;-85
2023/06/16 09:41:16;;;;;;;2.92;2.55;;;;;;;27.03;43.66;100669.06;4975191;28;20485;-84
2023/06/16 09:43:44;;;;;;;5.75;2.90;;;;;;;27.25;43.95;100677.63;4975281;28;20063;-85
2023/06/16 09:46:13;;;;;;;3.47;3.15;;;;;;;27.31;44.16;100670.41;4975378;28;20047;-85
2023/06/16 09:48:46;;;;;;;3.13;2.88;;;;;;;27.28;43.42;100659.97;4974642;28;20504;-85
2023/06/16 09:51:21;;;;;;;3.33;3.00;;;;;;;27.32;43.44;100663.59;4974906;28;20508;-85
2023/06/16 09:53:51;;;;;;;3.53;2.90;;;;;;;27.34;42.88;100668.81;4975087;28;20039;-85
2023/06/16 09:56:19;;;;;;;3.47;3.05;;;;;;;27.48;42.87;100659.66;4975312;28;20042;-85
2023/06/16 09:58:47;;;;;;;3.13;2.78;;;;;;;27.59;44.04;100666.16;4974544;28;20042;-85
2023/06/16 10:01:17;;;;;;;3.85;2.97;;;;;;;27.61;43.25;100671.38;4974756;28;20043;-85
2023/06/16 10:03:50;;;;;;;3.50;3.20;;;;;;;27.83;43.10;100665.81;4974666;28;20047;-85
2023/06/16 10:06:20;;;;;;;;;;;;;;;27.73;42.99;100662.59;4976070;28;20459;-85
2023/06/16 10:08:48;;;;;;;5.57;3.30;;;;;;;27.87;42.74;100656.19;4975450;28;19922;-85
2023/06/16 10:11:18;;;;;;;3.60;3.30;;;;;;;27.91;43.60;100644.97;4957083;28;20405;-85
2023/06/16 10:13:53;;;;;;;5.57;3.70;;;;;;;28.03;43.42;100653.03;4974951;28;20058;-85
2023/06/16 10:16:28;;;;;;;3.53;3.22;;;;;;;28.00;43.17;100647.41;4975559;28;20043;-85
2023/06/16 10:19:00;;;;;;;3.90;3.35;;;;;;;28.13;42.93;100656.22;4975103;28;20057;-85
2023/06/16 10:21:30;;;;;;;3.50;3.10;;;;;;;28.28;42.22;100645.81;4974843;28;20051;-85
2023/06/16 10:24:01;;;;;;;3.60;3.30;;;;;;;28.43;41.80;100649.44;4974578;28;20054;-85
2023/06/16 10:26:33;;;;;;;5.45;3.30;;;;;;;28.63;42.35;100649.06;4975470;28;20051;-84
2023/06/16 10:29:01;;;;;;;3.53;3.22;;;;;;;28.59;42.19;100634.16;4974548;28;20056;-85
2023/06/16 10:31:30;;;;;;;3.22;2.92;;;;;;;28.70;42.28;100647.00;4974282;28;20054;-85
2023/06/16 10:33:59;;;;;;;3.22;2.92;;;;;;;28.75;41.19;100642.19;4956695;28;20537;-86
2023/06/16 10:36:29;;;;;;;3.38;3.08;;;;;;;28.83;41.19;100635.31;4974498;28;20057;-85
2023/06/16 10:39:15;;;;;;;5.60;3.30;;;;;;;28.90;41.73;100640.16;4957188;28;20047;-85
2023/06/16 10:41:54;;;;;;;4.32;3.17;;;;;;;29.03;40.68;100626.47;4985332;28;20045;-86
2023/06/16 10:44:32;;;;;;;3.42;3.10;;;;;;;29.01;39.69;100628.88;4962015;28;20046;-86
2023/06/16 10:47:12;;;;;;;3.17;2.92;;;;;;;29.19;40.47;100635.28;4974467;28;20054;-86
2023/06/16 10:49:55;;;;;;;3.70;3.00;;;;;;;29.26;42.27;100617.50;4973854;28;20051;-85
2023/06/16 10:52:42;;;;;;;5.27;3.10;;;;;;;29.47;40.30;100622.25;4974277;28;20401;-85
2023/06/16 10:55:38;;;;;;;3.60;2.90;;;;;;;29.42;40.61;100622.66;4973869;28;20645;-86
2023/06/16 10:58:16;;;;;;;4.70;3.42;;;;;;;29.13;40.03;100619.19;4982942;28;20042;-86
2023/06/16 11:00:57;;;;;;;3.40;2.90;;;;;;;28.94;41.82;100610.00;4991752;28;20567;-85
2023/06/16 11:03:46;;;;;;;4.45;3.03;;;;;;;28.81;42.77;100603.94;4973982;28;20045;-85
2023/06/16 11:06:16;;;;;;;4.13;3.30;;;;;;;28.82;41.88;100591.47;4956611;28;20390;-85
2023/06/16 11:08:53;;;;;;;3.80;3.40;;;;;;;29.05;41.19;100596.69;4985615;28;20061;-86
2023/06/16 11:11:36;;;;;;;3.75;3.25;;;;;;;29.18;42.29;100599.03;4992960;28;20501;-85
2023/06/16 11:14:04;;;;;;;4.55;2.70;;;;;;;29.31;42.11;100583.28;4975868;28;20050;-86
2023/06/16 11:16:34;;;;;;;4.43;3.33;;;;;;;29.14;41.10;100584.16;4975464;28;20527;-85
2023/06/16 11:19:02;;;;;;;4.03;2.97;;;;;;;29.33;40.31;100577.25;4993294;28;20053;-85
2023/06/16 11:21:31;;;;;;;3.33;3.03;;;;;;;29.63;40.25;100579.50;4975580;28;20050;-85
2023/06/16 11:24:11;;;;;;;4.10;3.40;;;;;;;29.86;40.37;100575.31;4993731;28;20485;-85
2023/06/16 11:26:40;;;;;;;4.72;3.50;;;;;;;29.69;40.15;100582.69;4976623;28;20066;-85
2023/06/16 11:29:10;;;;;;;3.67;3.38;;;;;;;29.60;39.99;100573.88;4993224;28;20047;-85
2023/06/16 11:31:40;;;;;;;2.88;2.67;;;;;;;29.67;39.75;100564.59;4992750;28;20050;-85
2023/06/16 11:34:08;;;;;;;3.70;3.40;;;;;;;29.60;39.29;100563.41;4992563;28;20400;-85
2023/06/16 11:36:36;;;;;;;3.22;2.92;;;;;;;29.92;39.61;100564.41;4984464;28;20437;-85
2023/06/16 11:39:11;;;;;;;4.15;3.75;;;;;;;29.53;39.05;100551.38;4973235;28;20049;-85
2023/06/16 11:41:39;;;;;;;3.83;3.50;;;;;;;29.66;40.15;100554.53;4955947;28;20382;-86
2023/06/16 11:44:24;;;;;;;4.32;3.42;;;;;;;29.83;39.22;100552.78;4973280;28;20047;-85
2023/06/16 11:46:53;;;;;;;5.93;3.67;;;;;;;30.10;39.49;100558.63;4974256;28;20485;-85
2023/06/16 11:49:22;;;;;;;4.05;3.72;;;;;;;30.08;39.40;100552.59;4992160;28;20504;-85
2023/06/16 11:51:51;;;;;;;3.92;3.53;;;;;;;30.09;38.08;100559.03;4991838;28;20046;-85
2023/06/16 11:54:20;;;;;;;4.15;3.58;;;;;;;30.23;38.88;100552.47;4991731;28;20042;-85
2023/06/16 11:56:49;;;;;;;4.72;2.88;;;;;;;30.29;38.30;100551.63;4974092;28;20061;-84
2023/06/16 11:59:18;;;;;;;6.75;3.60;;;;;;;30.22;38.60;100545.22;4992471;28;20054;-85
2023/06/16 12:01:46;;;;;;;3.70;3.40;;;;;;;30.20;37.83;100540.00;4975394;28;20050;-86
2023/06/16 12:04:16;;;;;;;4.25;3.28;;;;;;;30.34;39.19;100544.69;4993030;28;20049;-85
2023/06/16 12:06:45;;;;;;;5.05;3.40;;;;;;;30.15;38.39;100546.13;4992545;28;20049;-85